• Join FlightAware (Why Join?)
  • Login
  • US Flag 
05:50AM EDT


 

Airport Tracker/Info


-or-


 

Live Flight TrackerFlight Track Log ✈ QTR503 ✈ 23-Jun-2013 ✈ HECA / CAI - OTBD / DOH

Flight Track Log - Related Links

Times and Time Zones

All times are in EDT time to prevent confusion due to time zone crossing. See the QTR503 flight status page for this flight to view local times or setup timezone preferences in your user account.

Time Position Orientation Groundspeed Altitude Reporting Facility
EDT Latitude Longitude Course Direction KTS MPH feet Rate Location/Type
12:52AM 30.1660 31.4430 41° Northeast 2,700  Level FlightAware
12:53AM 30.1770 31.4600 53° Northeast 180 207 3,200 420 Climbing FlightAware
12:53AM 30.1840 31.4810 69° East 180 207 3,200 180 Level FlightAware
12:56AM 30.1351 31.7810 101° East  Level Estimated
12:57AM 30.1153 31.9009 101° East  Level Estimated
12:58AM 30.0954 32.0208 101° East  Level Estimated
12:59AM 30.0755 32.1406 101° East  Level Estimated
01:00AM 30.0554 32.2603 101° East  Level Estimated
01:01AM 30.0352 32.3801 101° East  Level Estimated
01:02AM 30.0160 32.4933 101° East  Level Estimated
01:03AM 29.9967 32.6064 101° East  Level Estimated
01:04AM 29.9773 32.7195 101° East  Level Estimated
01:05AM 29.9578 32.8326 101° East  Level Estimated
01:06AM 29.9382 32.9456 101° East  Level Estimated
01:07AM 29.9185 33.0586 101° East  Level Estimated
01:08AM 29.8987 33.1716 101° East  Level Estimated
01:09AM 29.8788 33.2845 101° East  Level Estimated
01:10AM 29.8588 33.3973 102° East  Level Estimated
01:11AM 29.8388 33.5101 102° East  Level Estimated
01:12AM 29.8186 33.6229 102° East  Level Estimated
01:13AM 29.7983 33.7356 102° East  Level Estimated
01:14AM 29.7780 33.8482 102° East  Level Estimated
01:15AM 29.7575 33.9608 102° East  Level Estimated
01:16AM 29.7369 34.0734 102° East  Level Estimated
01:17AM 29.7163 34.1860 102° East  Level Estimated
01:18AM 29.6956 34.2984 102° East  Level Estimated
01:19AM 29.6747 34.4109 102° East  Level Estimated
01:20AM 29.6538 34.5233 102° East  Level Estimated
01:21AM 29.6328 34.6356 102° East  Level Estimated
01:22AM 29.6116 34.7479 102° East  Level Estimated
01:23AM 29.5904 34.8601 102° East  Level Estimated
01:24AM 29.5691 34.9723 102° East  Level Estimated
01:25AM 29.5477 35.0845 102° East  Level Estimated
01:26AM 29.5262 35.1966 102° East  Level Estimated
01:27AM 29.5046 35.3086 102° East  Level Estimated
01:28AM 29.4829 35.4207 103° East  Level Estimated
01:29AM 29.4611 35.5326 103° East  Level Estimated
01:30AM 29.4393 35.6445 103° East  Level Estimated
01:31AM 29.4173 35.7564 103° East  Level Estimated
01:32AM 29.3953 35.8682 103° East  Level Estimated
01:33AM 29.3731 35.9800 103° East  Level Estimated
01:34AM 29.3508 36.0917 103° East  Level Estimated
01:35AM 29.3285 36.2034 103° East  Level Estimated
01:36AM 29.3061 36.3150 103° East  Level Estimated
01:37AM 29.2836 36.4265 103° East  Level Estimated
01:38AM 29.2609 36.5381 103° East  Level Estimated
01:39AM 29.2382 36.6495 103° East  Level Estimated
01:40AM 29.2154 36.7609 103° East  Level Estimated
01:41AM 29.1925 36.8723 103° East  Level Estimated
01:42AM 29.1695 36.9836 103° East  Level Estimated
01:43AM 29.1465 37.0949 103° East  Level Estimated
01:44AM 29.1233 37.2061 103° East  Level Estimated
01:45AM 29.1000 37.3173 103° East  Level Estimated
01:46AM 29.0767 37.4284 103° East  Level Estimated
01:47AM 29.0532 37.5395 104° East  Level Estimated
01:48AM 29.0297 37.6505 104° East  Level Estimated
01:49AM 29.0060 37.7615 104° East  Level Estimated
01:50AM 28.9823 37.8724 104° East  Level Estimated
01:51AM 28.9585 37.9833 104° East  Level Estimated
01:52AM 28.9346 38.0941 104° East  Level Estimated
01:53AM 28.9106 38.2049 104° East  Level Estimated
01:54AM 28.8865 38.3156 104° East  Level Estimated
01:55AM 28.8624 38.4262 104° East  Level Estimated
01:56AM 28.8381 38.5368 104° East  Level Estimated
01:57AM 28.8138 38.6474 104° East  Level Estimated
01:58AM 28.7893 38.7579 104° East  Level Estimated
01:59AM 28.7648 38.8684 104° East  Level Estimated
02:00AM 28.7402 38.9788 104° East  Level Estimated
02:01AM 28.7155 39.0891 104° East  Level Estimated
02:02AM 28.6907 39.1994 104° East  Level Estimated
02:03AM 28.6658 39.3097 104° East  Level Estimated
02:04AM 28.6408 39.4199 104° East  Level Estimated
02:05AM 28.6157 39.5300 105° East  Level Estimated
02:06AM 28.5906 39.6401 105° East  Level Estimated
02:07AM 28.5653 39.7501 105° East  Level Estimated
02:08AM 28.5400 39.8601 105° East  Level Estimated
02:09AM 28.5145 39.9701 105° East  Level Estimated
02:10AM 28.4890 40.0799 105° East  Level Estimated
02:11AM 28.4634 40.1898 105° East  Level Estimated
02:12AM 28.4377 40.2995 105° East  Level Estimated
02:13AM 28.4120 40.4092 105° East  Level Estimated
02:14AM 28.3861 40.5189 105° East  Level Estimated
02:15AM 28.3601 40.6285 105° East  Level Estimated
02:16AM 28.3341 40.7381 105° East  Level Estimated
02:17AM 28.3080 40.8476 105° East  Level Estimated
02:18AM 28.2817 40.9570 105° East  Level Estimated
02:19AM 28.2554 41.0664 105° East  Level Estimated
02:20AM 28.2290 41.1758 105° East  Level Estimated
02:21AM 28.2026 41.2850 105° East  Level Estimated
02:22AM 28.1760 41.3943 105° East  Level Estimated
02:23AM 28.1493 41.5035 105° East  Level Estimated
02:24AM 28.1226 41.6126 106° East  Level Estimated
02:25AM 28.0958 41.7216 106° East  Level Estimated
02:26AM 28.0689 41.8307 106° East  Level Estimated
02:27AM 28.0419 41.9396 106° East  Level Estimated
02:28AM 28.0148 42.0485 106° East  Level Estimated
02:29AM 27.9876 42.1574 106° East  Level Estimated
02:30AM 27.9604 42.2662 106° East  Level Estimated
02:31AM 27.9330 42.3749 106° East  Level Estimated
02:32AM 27.9056 42.4836 106° East  Level Estimated
02:33AM 27.8781 42.5923 106° East  Level Estimated
02:34AM 27.8505 42.7008 106° East  Level Estimated
02:35AM 27.8228 42.8093 106° East  Level Estimated
02:36AM 27.7950 42.9178 106° East  Level Estimated
02:37AM 27.7672 43.0262 106° East  Level Estimated
02:38AM 27.7393 43.1346 106° East  Level Estimated
02:39AM 27.7113 43.2429 106° East  Level Estimated
02:40AM 27.6831 43.3511 106° East  Level Estimated
02:41AM 27.6550 43.4593 106° East  Level Estimated
02:42AM 27.6267 43.5674 106° East  Level Estimated
02:43AM 27.5983 43.6755 106° East  Level Estimated
02:44AM 27.5699 43.7835 107° East  Level Estimated
02:45AM 27.5414 43.8915 107° East  Level Estimated
02:46AM 27.5128 43.9994 107° East  Level Estimated
02:47AM 27.4841 44.1073 107° East  Level Estimated
02:48AM 27.4553 44.2150 107° East  Level Estimated
02:49AM 27.4265 44.3228 107° East  Level Estimated
02:50AM 27.3975 44.4305 107° East  Level Estimated
02:51AM 27.3685 44.5381 107° East  Level Estimated
02:52AM 27.3394 44.6457 107° East  Level Estimated
02:53AM 27.3102 44.7532 107° East  Level Estimated
02:54AM 27.2809 44.8606 107° East  Level Estimated
02:55AM 27.2516 44.9680 107° East  Level Estimated
02:56AM 27.2222 45.0754 107° East  Level Estimated
02:57AM 27.1926 45.1827 107° East  Level Estimated
02:58AM 27.1630 45.2899 107° East  Level Estimated
02:59AM 27.1334 45.3971 107° East  Level Estimated
03:00AM 27.1036 45.5042 107° East  Level Estimated
03:01AM 27.0738 45.6112 107° East  Level Estimated
03:02AM 27.0438 45.7182 107° East  Level Estimated
03:03AM 27.0138 45.8252 107° East  Level Estimated
03:04AM 26.9838 45.9321 108° East  Level Estimated
03:05AM 26.9536 46.0389 108° East  Level Estimated
03:06AM 26.9234 46.1457 108° East  Level Estimated
03:07AM 26.8930 46.2524 108° East  Level Estimated
03:08AM 26.8626 46.3590 108° East  Level Estimated
03:09AM 26.8322 46.4656 108° East  Level Estimated
03:10AM 26.8016 46.5722 108° East  Level Estimated
03:11AM 26.7710 46.6786 108° East  Level Estimated
03:12AM 26.7402 46.7851 108° East  Level Estimated
03:13AM 26.7094 46.8914 108° East  Level Estimated
03:14AM 26.6786 46.9978 108° East  Level Estimated
03:14AM 26.4570 50.4040 108° East 471 542 31,000  Level FlightAware
03:14AM 26.4380 50.4770 106° East 471 542 31,000  Level FlightAware
03:15AM 26.6476 47.1040 108° East  Level Estimated
03:16AM 26.3850 50.6580 108° East 471 542 31,000  Level FlightAware
03:16AM 26.3580 50.7560 107° East 472 543 31,000 -360 Level FlightAware
03:17AM 26.3280 50.8600 108° East 467 537 30,500 -1,440 Descending FlightAware
03:18AM 26.2990 50.9470 110° East 458 527 29,000 -1,980 Descending FlightAware
03:18AM 26.2540 51.0430 118° Southeast 461 531 27,700 -1,740 Descending FlightAware
03:19AM 26.2140 51.1250 119° Southeast 461 531 26,600 -2,040 Descending FlightAware
03:20AM 26.1710 51.2100 119° Southeast 446 513 25,000 -2,280 Descending FlightAware
03:21AM 26.1250 51.3010 119° Southeast 432 497 23,400 -2,220 Descending FlightAware
03:21AM 26.0860 51.3780 119° Southeast 425 489 21,900 -2,220 Descending FlightAware
03:22AM 26.0290 51.4340 139° Southeast 418 481 20,500 -2,160 Descending FlightAware
03:23AM 25.9660 51.4780 148° Southeast 404 465 19,000 -2,280 Descending FlightAware
03:23AM 25.8930 51.5300 147° Southeast 401 461 17,300 -2,040 Descending FlightAware
03:24AM 25.8330 51.5730 147° Southeast 385 443 16,200 -2,100 Descending FlightAware
03:25AM 25.7610 51.6190 150° Southeast 372 428 14,400 -2,640 Descending FlightAware
03:25AM 25.6950 51.6290 172° South 354 407 12,500 -2,580 Descending FlightAware
03:26AM 25.6210 51.6400 172° South 344 396 10,800 -1,740 Descending FlightAware
03:27AM 25.5580 51.6490 173° South 324 373 10,100 -960 Descending FlightAware
03:27AM 25.5160 51.6550 173° South 311 358 9,700 -1,200 Descending FlightAware
03:28AM 25.4790 51.6610 172° South 309 356 9,000 -1,620 Descending FlightAware
03:28AM 25.4380 51.6680 171° South 312 359 8,200 -1,440 Descending FlightAware
03:29AM 25.3930 51.6740 173° South 312 359 7,600 -900 Descending FlightAware
03:29AM 25.3560 51.6800 172° South 309 356 7,400 -600 Descending FlightAware
03:29AM 25.3340 51.6840 171° South 307 353 7,200 -660 Descending FlightAware
03:30AM 25.2770 51.6920 173° South 293 337 6,800 -720 Descending FlightAware
03:31AM 25.2360 51.6980 172° South 289 333 6,400 -660 Descending FlightAware
03:31AM 25.2150 51.7010 173° South 273 314 6,300 -600 Descending FlightAware
03:31AM 25.1850 51.7060 171° South 263 303 6,000 -780 Descending FlightAware
03:31AM 25.1670 51.7090 171° South 260 299 5,800 -1,020 Descending FlightAware
03:32AM 25.1450 51.7120 173° South 259 298 5,400 -1,200 Descending FlightAware
03:32AM 25.1090 51.7190 170° South 258 297 4,800 -1,080 Descending FlightAware
03:33AM 25.0730 51.6940 212° Southwest 192 221 4,100 -1,260 Descending FlightAware
03:33AM 25.0710 51.6780 262° West 175 201 3,600 -1,200 Descending FlightAware
03:34AM 25.0780 51.6600 293° West 169 194 3,300 -540 Descending FlightAware
03:34AM 25.0930 51.6400 310° West 146 168 3,100 -420 Descending FlightAware
03:35AM 25.1120 51.6310 337° Northwest 143 165 2,900 -540 Descending FlightAware
03:35AM 25.1210 51.6270 338° Northwest 140 161 2,700 -660 Descending FlightAware
03:35AM 25.1390 51.6190 338° Northwest 140 161 2,400 -600 Descending FlightAware
03:36AM 25.1520 51.6130 337° Northwest 127 146 2,200 -780 Descending FlightAware
03:36AM 25.1730 51.6040 339° North 136 157 1,700 -780 Descending FlightAware
03:37AM 25.1880 51.5970 337° Northwest 127 146 1,500 -360 Descending FlightAware
03:38AM 25.2090 51.5880 339° North 128 147 1,300 -300 Descending FlightAware
03:40AM 25.2611 51.5651 338° Northwest  Level Estimated
03:41AM 25.2611 51.5651 324° Northwest  Level Estimated
03:42AM 25.2611 51.5651 324° Northwest  Level Estimated
03:43AM 25.2611 51.5651 324° Northwest  Level Estimated
03:44AM 25.2611 51.5651 324° Northwest  Level Estimated
03:45AM 25.2611 51.5651 324° Northwest  Level Estimated
03:46AM 25.2611 51.5651 324° Northwest  Level Estimated
03:47AM 25.2611 51.5651 324° Northwest  Level Estimated
03:48AM 25.2611 51.5651 324° Northwest  Level Estimated
03:49AM 25.2611 51.5651 324° Northwest  Level Estimated
03:50AM 25.2611 51.5651 324° Northwest  Level Estimated
03:51AM 25.2611 51.5651 324° Northwest  Level Estimated
03:52AM 25.2611 51.5651 324° Northwest  Level Estimated
03:53AM 25.2611 51.5651 324° Northwest  Level Estimated
03:54AM 25.2611 51.5651 324° Northwest  Level Estimated
03:55AM 25.2611 51.5651 324° Northwest  Level Estimated
03:56AM 25.2611 51.5651 324° Northwest  Level Estimated
03:57AM 25.2611 51.5651 324° Northwest  Level Estimated
03:58AM 25.2611 51.5651 324° Northwest  Level Estimated